createdAt,value
2023-10-27T00:00:58.820Z,50.902390
2023-10-27T00:01:58.754Z,50.902359
2023-10-27T00:02:58.802Z,50.902382
2023-10-27T00:03:58.856Z,50.902405
2023-10-27T00:04:58.806Z,50.902405
2023-10-27T00:05:58.728Z,50.902390
2023-10-27T00:06:58.763Z,50.902382
2023-10-27T00:07:58.731Z,50.902359
2023-10-27T00:08:58.710Z,50.902367
2023-10-27T00:09:58.792Z,50.902382
2023-10-27T00:10:58.681Z,50.902412
2023-10-27T00:11:58.671Z,50.902386
2023-10-27T00:12:58.743Z,50.902386
2023-10-27T00:13:58.654Z,50.902390
2023-10-27T00:14:58.648Z,50.902397
2023-10-27T00:15:58.676Z,50.902382
2023-10-27T00:16:58.656Z,50.902382
2023-10-27T00:17:58.713Z,50.902397
2023-10-27T00:18:58.738Z,50.902409
2023-10-27T00:19:58.615Z,50.902397
2023-10-27T00:20:58.603Z,50.902386
2023-10-27T00:21:58.716Z,50.902378
2023-10-27T00:22:58.594Z,50.902386
2023-10-27T00:23:58.577Z,50.902416
2023-10-27T00:24:58.583Z,50.902397
2023-10-27T00:25:58.628Z,50.902401
2023-10-27T00:26:58.622Z,50.902431
2023-10-27T00:27:58.582Z,50.902401
2023-10-27T00:28:58.550Z,50.902409
2023-10-27T00:29:58.536Z,50.902405
2023-10-27T00:30:58.577Z,50.902390
2023-10-27T00:31:58.562Z,50.902382
2023-10-27T00:32:58.620Z,50.902386
2023-10-27T00:33:58.571Z,50.902382
2023-10-27T00:34:58.550Z,50.902401
2023-10-27T00:35:58.545Z,50.902386
2023-10-27T00:36:58.534Z,50.902393
2023-10-27T00:37:58.489Z,50.902412
2023-10-27T00:38:58.473Z,50.902393
2023-10-27T00:39:58.480Z,50.902420
2023-10-27T00:40:58.483Z,50.902401
2023-10-27T00:41:58.522Z,50.902401
2023-10-27T00:42:58.493Z,50.902386
2023-10-27T00:43:58.452Z,50.902393
2023-10-27T00:44:58.444Z,50.902405
2023-10-27T00:45:59.456Z,50.902386
2023-10-27T00:46:58.410Z,50.902393
2023-10-27T00:47:58.444Z,50.902390
2023-10-27T00:48:58.536Z,50.902382
2023-10-27T00:49:58.422Z,50.902386
2023-10-27T00:50:58.380Z,50.902382
2023-10-27T00:51:58.413Z,50.902370
2023-10-27T00:52:58.373Z,50.902359
2023-10-27T00:53:58.365Z,50.902386
2023-10-27T00:54:58.418Z,50.902382
2023-10-27T00:55:58.346Z,50.902386
2023-10-27T00:56:58.387Z,50.902386
2023-10-27T00:57:58.438Z,50.902378
2023-10-27T00:58:58.357Z,50.902390
2023-10-27T00:59:58.341Z,50.902348
2023-10-27T01:00:58.363Z,50.902363
2023-10-27T01:01:58.297Z,50.902382
2023-10-27T01:02:58.359Z,50.902386
2023-10-27T01:03:58.377Z,50.902405
2023-10-27T01:04:58.343Z,50.902397
2023-10-27T01:05:58.300Z,50.902351
2023-10-27T01:06:58.263Z,50.902367
2023-10-27T01:07:58.247Z,50.902397
2023-10-27T01:08:58.260Z,50.902397
2023-10-27T01:09:58.253Z,50.902412
2023-10-27T01:10:58.383Z,50.902378
2023-10-27T01:11:59.209Z,50.902382
2023-10-27T01:12:58.236Z,50.902367
2023-10-27T01:13:58.302Z,50.902382
2023-10-27T01:14:58.185Z,50.902393
2023-10-27T01:15:58.183Z,50.902367
2023-10-27T01:16:58.168Z,50.902397
2023-10-27T01:17:58.215Z,50.902401
2023-10-27T01:18:58.273Z,50.902397
2023-10-27T01:19:58.260Z,50.902386
2023-10-27T01:20:58.133Z,50.902401
2023-10-27T01:21:58.152Z,50.902382
2023-10-27T01:22:58.147Z,50.902382
2023-10-27T01:23:58.112Z,50.902397
2023-10-27T01:24:58.116Z,50.902397
2023-10-27T01:25:58.097Z,50.902382
2023-10-27T01:26:58.083Z,50.902367
2023-10-27T01:27:58.135Z,50.902363
2023-10-27T01:28:58.069Z,50.902317
2023-10-27T01:29:58.137Z,50.902355
2023-10-27T01:30:58.125Z,50.902325
2023-10-27T01:31:58.073Z,50.902378
2023-10-27T01:32:58.093Z,50.902367
2023-10-27T01:33:58.073Z,50.902382
2023-10-27T01:34:58.099Z,50.902370
2023-10-27T01:35:58.036Z,50.902351
2023-10-27T01:36:58.052Z,50.902359
2023-10-27T01:37:58.038Z,50.902367
2023-10-27T01:38:58.040Z,50.902390
2023-10-27T01:39:58.020Z,50.902409
2023-10-27T01:40:57.979Z,50.902370
2023-10-27T01:41:58.047Z,50.902401
2023-10-27T01:42:57.969Z,50.902359
2023-10-27T01:43:57.948Z,50.902363
2023-10-27T01:44:57.953Z,50.902397
2023-10-27T01:45:58.076Z,50.902370
2023-10-27T01:46:57.954Z,50.902393
2023-10-27T01:47:57.949Z,50.902405
2023-10-27T01:48:57.945Z,50.902420
2023-10-27T01:49:57.895Z,50.902386
2023-10-27T01:50:57.940Z,50.902401
2023-10-27T01:51:57.918Z,50.902374
2023-10-27T01:52:57.873Z,50.902386
2023-10-27T01:53:57.867Z,50.902409
2023-10-27T01:54:57.884Z,50.902401
2023-10-27T01:55:57.877Z,50.902424
2023-10-27T01:56:57.843Z,50.902405
2023-10-27T01:57:57.866Z,50.902374
2023-10-27T01:58:57.823Z,50.902397
2023-10-27T01:59:57.854Z,50.902382
2023-10-27T02:00:57.867Z,50.902363
2023-10-27T02:01:57.865Z,50.902401
2023-10-27T02:02:57.804Z,50.902397
2023-10-27T02:03:57.850Z,50.902393
2023-10-27T02:04:57.826Z,50.902386
2023-10-27T02:05:57.792Z,50.902393
2023-10-27T02:06:57.814Z,50.902431
2023-10-27T02:07:57.751Z,50.902454
2023-10-27T02:08:57.745Z,50.902451
2023-10-27T02:09:57.765Z,50.902431
2023-10-27T02:10:57.727Z,50.902405
2023-10-27T02:11:57.750Z,50.902424
2023-10-27T02:12:57.764Z,50.902393
2023-10-27T02:13:57.699Z,50.902416
2023-10-27T02:14:57.719Z,50.902435
2023-10-27T02:15:57.749Z,50.902416
2023-10-27T02:16:57.680Z,50.902416
2023-10-27T02:17:57.777Z,50.902428
2023-10-27T02:18:57.700Z,50.902409
2023-10-27T02:19:57.740Z,50.902393
2023-10-27T02:20:57.645Z,50.902431
2023-10-27T02:21:57.668Z,50.902439
2023-10-27T02:22:57.631Z,50.902439
2023-10-27T02:23:57.660Z,50.902428
2023-10-27T02:24:57.744Z,50.902428
2023-10-27T02:25:57.605Z,50.902428
2023-10-27T02:26:57.604Z,50.902428
2023-10-27T02:27:57.635Z,50.902420
2023-10-27T02:28:57.634Z,50.902439
2023-10-27T02:29:57.578Z,50.902447
2023-10-27T02:30:57.631Z,50.902443
2023-10-27T02:31:57.562Z,50.902435
2023-10-27T02:32:58.663Z,50.902454
2023-10-27T02:33:57.757Z,50.902466
2023-10-27T02:34:57.552Z,50.902431
2023-10-27T02:35:57.532Z,50.902428
2023-10-27T02:36:57.545Z,50.902435
2023-10-27T02:37:57.577Z,50.902435
2023-10-27T02:38:57.534Z,50.902435
2023-10-27T02:39:57.514Z,50.902443
2023-10-27T02:40:57.495Z,50.902447
2023-10-27T02:41:57.480Z,50.902458
2023-10-27T02:42:57.552Z,50.902470
2023-10-27T02:43:57.467Z,50.902473
2023-10-27T02:44:57.456Z,50.902470
2023-10-27T02:45:57.461Z,50.902466
2023-10-27T02:46:57.500Z,50.902454
2023-10-27T02:47:57.473Z,50.902439
2023-10-27T02:48:57.548Z,50.902424
2023-10-27T02:49:57.499Z,50.902447
2023-10-27T02:50:57.429Z,50.902435
2023-10-27T02:51:57.448Z,50.902435
2023-10-27T02:52:57.421Z,50.902447
2023-10-27T02:53:57.385Z,50.902481
2023-10-27T02:54:57.426Z,50.902481
2023-10-27T02:55:57.379Z,50.902458
2023-10-27T02:56:57.389Z,50.902462
2023-10-27T02:57:57.394Z,50.902477
2023-10-27T02:58:57.344Z,50.902458
2023-10-27T02:59:57.364Z,50.902454
2023-10-27T03:00:57.350Z,50.902451
2023-10-27T03:01:57.335Z,50.902466
2023-10-27T03:02:58.358Z,50.902470
2023-10-27T03:03:57.365Z,50.902431
2023-10-27T03:04:57.380Z,50.902508
2023-10-27T03:05:57.382Z,50.902493
2023-10-27T03:06:57.321Z,50.902527
2023-10-27T03:07:57.276Z,50.902466
2023-10-27T03:08:57.280Z,50.902500
2023-10-27T03:09:57.299Z,50.902466
2023-10-27T03:10:57.281Z,50.902485
2023-10-27T03:11:57.251Z,50.902477
2023-10-27T03:12:57.280Z,50.902477
2023-10-27T03:13:57.239Z,50.902500
2023-10-27T03:14:57.265Z,50.902515
2023-10-27T03:15:57.262Z,50.902538
2023-10-27T03:16:57.221Z,50.902531
2023-10-27T03:17:57.237Z,50.902485
2023-10-27T03:18:57.287Z,50.902512
2023-10-27T03:19:57.307Z,50.902534
2023-10-27T03:20:57.179Z,50.902489
2023-10-27T03:21:57.245Z,50.902473
2023-10-27T03:22:57.159Z,50.902485
2023-10-27T03:23:57.156Z,50.902466
2023-10-27T03:24:57.186Z,50.902493
2023-10-27T03:25:57.131Z,50.902500
2023-10-27T03:26:57.140Z,50.902515
2023-10-27T03:27:57.144Z,50.902512
2023-10-27T03:28:57.133Z,50.902508
2023-10-27T03:29:57.125Z,50.902481
2023-10-27T03:30:57.095Z,50.902470
2023-10-27T03:31:57.085Z,50.902504
2023-10-27T03:32:57.128Z,50.902470
2023-10-27T03:33:57.143Z,50.902485
2023-10-27T03:34:57.125Z,50.902454
2023-10-27T03:35:57.060Z,50.902466
2023-10-27T03:36:57.073Z,50.902496
2023-10-27T03:37:57.141Z,50.902496
2023-10-27T03:38:57.094Z,50.902508
2023-10-27T03:39:57.077Z,50.902542
2023-10-27T03:40:57.045Z,50.902512
2023-10-27T03:41:57.040Z,50.902481
2023-10-27T03:42:57.124Z,50.902512
2023-10-27T03:43:57.057Z,50.902504
2023-10-27T03:44:57.026Z,50.902489
2023-10-27T03:45:57.033Z,50.902531
2023-10-27T03:46:57.020Z,50.902493
2023-10-27T03:47:57.083Z,50.902481
2023-10-27T03:48:57.186Z,50.902466
2023-10-27T03:49:57.004Z,50.902470
2023-10-27T03:50:56.986Z,50.902485
2023-10-27T03:51:57.012Z,50.902515
2023-10-27T03:52:57.006Z,50.902489
2023-10-27T03:53:57.049Z,50.902485
2023-10-27T03:54:57.023Z,50.902489
2023-10-27T03:55:57.096Z,50.902493
2023-10-27T03:56:56.961Z,50.902504
2023-10-27T03:57:57.033Z,50.902527
2023-10-27T03:58:56.984Z,50.902519
2023-10-27T03:59:56.931Z,50.902504
2023-10-27T04:00:56.935Z,50.902519
2023-10-27T04:01:56.961Z,50.902504
2023-10-27T04:02:56.935Z,50.902504
2023-10-27T04:03:57.004Z,50.902504
2023-10-27T04:04:57.023Z,50.902504
2023-10-27T04:05:56.895Z,50.902500
2023-10-27T04:06:56.933Z,50.902500
2023-10-27T04:07:56.874Z,50.902496
2023-10-27T04:08:56.869Z,50.902515
2023-10-27T04:09:57.008Z,50.902493
2023-10-27T04:10:56.869Z,50.902493
2023-10-27T04:11:56.899Z,50.902500
2023-10-27T04:12:56.951Z,50.902496
2023-10-27T04:13:56.836Z,50.902493
2023-10-27T04:14:56.823Z,50.902504
2023-10-27T04:15:56.930Z,50.902493
2023-10-27T04:16:56.834Z,50.902485
2023-10-27T04:17:56.927Z,50.902466
2023-10-27T04:18:56.954Z,50.902489
2023-10-27T04:19:56.789Z,50.902489
2023-10-27T04:20:56.821Z,50.902481
2023-10-27T04:21:56.795Z,50.902485
2023-10-27T04:22:56.773Z,50.902500
2023-10-27T04:23:56.758Z,50.902496
2023-10-27T04:24:56.868Z,50.902481
2023-10-27T04:25:56.851Z,50.902473
2023-10-27T04:26:56.731Z,50.902470
2023-10-27T04:27:56.767Z,50.902470
2023-10-27T04:28:56.725Z,50.902470
2023-10-27T04:29:56.742Z,50.902451
2023-10-27T04:30:56.763Z,50.902439
2023-10-27T04:31:56.712Z,50.902435
2023-10-27T04:32:56.754Z,50.902458
2023-10-27T04:33:56.711Z,50.902470
2023-10-27T04:34:56.714Z,50.902462
2023-10-27T04:35:56.694Z,50.902454
2023-10-27T04:36:56.745Z,50.902470
2023-10-27T04:37:56.648Z,50.902473
2023-10-27T04:38:56.656Z,50.902428
2023-10-27T04:39:56.705Z,50.902424
2023-10-27T04:40:56.628Z,50.902374
2023-10-27T04:41:56.700Z,50.902390
2023-10-27T04:42:56.633Z,50.902431
2023-10-27T04:43:56.611Z,50.902435
2023-10-27T04:44:56.634Z,50.902431
2023-10-27T04:45:56.610Z,50.902409
2023-10-27T04:46:56.594Z,50.902409
2023-10-27T04:47:56.589Z,50.902443
2023-10-27T04:48:56.642Z,50.902428
2023-10-27T04:49:56.589Z,50.902473
2023-10-27T04:50:56.562Z,50.902458
2023-10-27T04:51:56.633Z,50.902454
2023-10-27T04:52:56.548Z,50.902470
2023-10-27T04:53:56.556Z,50.902443
2023-10-27T04:54:56.649Z,50.902420
2023-10-27T04:55:56.513Z,50.902439
2023-10-27T04:56:56.510Z,50.902390
2023-10-27T04:57:56.615Z,50.902386
2023-10-27T04:58:56.516Z,50.902405
2023-10-27T04:59:56.492Z,50.902454
2023-10-27T05:00:56.497Z,50.902390
2023-10-27T05:01:56.469Z,50.902416
2023-10-27T05:02:56.483Z,50.902401
2023-10-27T05:03:56.509Z,50.902393
2023-10-27T05:04:56.523Z,50.902412
2023-10-27T05:05:56.435Z,50.902390
2023-10-27T05:06:56.430Z,50.902416
2023-10-27T05:07:56.457Z,50.902393
2023-10-27T05:08:56.435Z,50.902355
2023-10-27T05:09:56.406Z,50.902306
2023-10-27T05:10:56.405Z,50.902393
2023-10-27T05:11:56.388Z,50.902386
2023-10-27T05:12:56.419Z,50.902363
2023-10-27T05:13:56.494Z,50.902355
2023-10-27T05:14:56.381Z,50.902313
2023-10-27T05:15:56.407Z,50.902332
2023-10-27T05:16:56.349Z,50.902351
2023-10-27T05:17:56.456Z,50.902325
2023-10-27T05:18:56.376Z,50.902340
2023-10-27T05:19:56.336Z,50.902363
2023-10-27T05:20:56.321Z,50.902378
2023-10-27T05:21:56.337Z,50.902355
2023-10-27T05:22:56.337Z,50.902306
2023-10-27T05:23:56.314Z,50.902313
2023-10-27T05:24:56.290Z,50.902287
2023-10-27T05:25:56.293Z,50.902325
2023-10-27T05:26:56.308Z,50.902336
2023-10-27T05:27:56.307Z,50.902359
2023-10-27T05:28:58.161Z,50.902378
2023-10-27T05:29:57.332Z,50.902386
2023-10-27T05:30:56.245Z,50.902428
2023-10-27T05:31:56.271Z,50.902458
2023-10-27T05:32:56.259Z,50.902443
2023-10-27T05:33:56.259Z,50.902466
2023-10-27T05:34:56.251Z,50.902431
2023-10-27T05:35:56.211Z,50.902412
2023-10-27T05:36:56.245Z,50.902431
2023-10-27T05:37:56.198Z,50.902412
2023-10-27T05:38:56.187Z,50.902405
2023-10-27T05:39:56.197Z,50.902409
2023-10-27T05:40:56.196Z,50.902386
2023-10-27T05:41:56.196Z,50.902405
2023-10-27T05:42:56.157Z,50.902401
2023-10-27T05:43:56.169Z,50.902416
2023-10-27T05:44:56.144Z,50.902428
2023-10-27T05:45:56.239Z,50.902401
2023-10-27T05:46:56.155Z,50.902420
2023-10-27T05:47:56.207Z,50.902454
2023-10-27T05:48:56.160Z,50.902439
2023-10-27T05:49:56.106Z,50.902409
2023-10-27T05:50:56.136Z,50.902412
2023-10-27T05:51:56.098Z,50.902401
2023-10-27T05:52:56.083Z,50.902386
2023-10-27T05:53:56.070Z,50.902405
2023-10-27T05:54:56.098Z,50.902397
2023-10-27T05:55:56.090Z,50.902409
2023-10-27T05:56:56.040Z,50.902401
2023-10-27T05:57:56.039Z,50.902409
2023-10-27T05:58:56.032Z,50.902416
2023-10-27T05:59:56.078Z,50.902382
2023-10-27T06:00:58.195Z,50.902401
2023-10-27T06:02:05.761Z,50.902424
2023-10-27T06:02:58.066Z,50.902386
2023-10-27T06:03:56.007Z,50.902424
2023-10-27T06:04:56.004Z,50.902390
2023-10-27T06:05:55.970Z,50.902424
2023-10-27T06:06:55.969Z,50.902409
2023-10-27T06:07:55.956Z,50.902401
2023-10-27T06:08:55.971Z,50.902412
2023-10-27T06:09:55.970Z,50.902416
2023-10-27T06:10:55.944Z,50.902393
2023-10-27T06:11:55.982Z,50.902378
2023-10-27T06:12:55.921Z,50.902397
2023-10-27T06:13:55.957Z,50.902386
2023-10-27T06:14:55.927Z,50.902409
2023-10-27T06:15:55.889Z,50.902420
2023-10-27T06:16:55.892Z,50.902367
2023-10-27T06:17:55.963Z,50.902401
2023-10-27T06:18:55.972Z,50.902397
2023-10-27T06:20:05.649Z,50.902424
2023-10-27T06:20:57.964Z,50.902447
2023-10-27T06:21:55.847Z,50.902397
2023-10-27T06:22:55.887Z,50.902405
2023-10-27T06:23:55.853Z,50.902393
2023-10-27T06:24:55.833Z,50.902386
2023-10-27T06:25:55.812Z,50.902412
2023-10-27T06:26:55.808Z,50.902420
2023-10-27T06:27:55.846Z,50.902401
2023-10-27T06:28:55.799Z,50.902405
2023-10-27T06:29:55.786Z,50.902390
2023-10-27T06:30:55.790Z,50.902431
2023-10-27T06:31:55.787Z,50.902401
2023-10-27T06:32:55.827Z,50.902454
2023-10-27T06:33:55.839Z,50.902367
2023-10-27T06:34:55.737Z,50.902374
2023-10-27T06:35:55.735Z,50.902367
2023-10-27T06:36:59.311Z,50.902409
2023-10-27T06:37:57.763Z,50.902390
2023-10-27T06:38:55.705Z,50.902397
2023-10-27T06:39:55.702Z,50.902397
2023-10-27T06:40:55.711Z,50.902393
2023-10-27T06:41:55.709Z,50.902374
2023-10-27T06:42:55.677Z,50.902393
2023-10-27T06:43:55.683Z,50.902367
2023-10-27T06:44:55.665Z,50.902405
2023-10-27T06:45:55.650Z,50.902355
2023-10-27T06:46:55.668Z,50.902374
2023-10-27T06:47:55.706Z,50.902370
2023-10-27T06:48:55.638Z,50.902409
2023-10-27T06:49:55.720Z,50.902374
2023-10-27T06:50:55.640Z,50.902435
2023-10-27T06:51:55.629Z,50.902397
2023-10-27T06:52:55.617Z,50.902378
2023-10-27T06:53:55.588Z,50.902363
2023-10-27T06:54:55.584Z,50.902412
2023-10-27T06:55:55.601Z,50.902393
2023-10-27T06:56:55.652Z,50.902382
2023-10-27T06:57:55.564Z,50.902412
2023-10-27T06:58:55.554Z,50.902435
2023-10-27T06:59:55.545Z,50.902470
2023-10-27T07:00:55.560Z,50.902420
2023-10-27T07:01:55.544Z,50.902424
2023-10-27T07:02:56.947Z,50.902435
2023-10-27T07:03:56.607Z,50.902390
2023-10-27T07:04:55.674Z,50.902412
2023-10-27T07:05:55.610Z,50.902405
2023-10-27T07:06:56.351Z,50.902428
2023-10-27T07:07:56.495Z,50.902393
2023-10-27T07:08:55.490Z,50.902409
2023-10-27T07:09:56.518Z,50.902409
2023-10-27T07:10:55.496Z,50.902454
2023-10-27T07:11:55.912Z,50.902416
2023-10-27T07:12:55.460Z,50.902401
2023-10-27T07:13:55.448Z,50.902462
2023-10-27T07:14:55.523Z,50.902462
2023-10-27T07:15:55.433Z,50.902405
2023-10-27T07:16:55.420Z,50.902462
2023-10-27T07:17:55.464Z,50.902370
2023-10-27T07:18:55.457Z,50.902382
2023-10-27T07:19:55.490Z,50.902390
2023-10-27T07:20:55.450Z,50.902393
2023-10-27T07:21:55.638Z,50.902420
2023-10-27T07:22:55.371Z,50.902431
2023-10-27T07:23:56.403Z,50.902428
2023-10-27T07:24:55.359Z,50.902428
2023-10-27T07:25:55.372Z,50.902447
2023-10-27T07:26:55.355Z,50.902439
2023-10-27T07:27:55.338Z,50.902439
2023-10-27T07:28:55.357Z,50.902409
2023-10-27T07:29:55.325Z,50.902424
2023-10-27T07:30:55.319Z,50.902435
2023-10-27T07:31:55.318Z,50.902466
2023-10-27T07:32:55.332Z,50.902454
2023-10-27T07:33:55.359Z,50.902466
2023-10-27T07:34:55.304Z,50.902470
2023-10-27T07:35:55.287Z,50.902470
2023-10-27T07:36:55.273Z,50.902473
2023-10-27T07:37:55.444Z,50.902454
2023-10-27T07:38:55.279Z,50.902424
2023-10-27T07:39:55.247Z,50.902393
2023-10-27T07:40:55.245Z,50.902435
2023-10-27T07:41:55.231Z,50.902424
2023-10-27T07:42:55.248Z,50.902424
2023-10-27T07:43:55.216Z,50.902416
2023-10-27T07:44:55.218Z,50.902416
2023-10-27T07:45:55.195Z,50.902420
2023-10-27T07:46:55.207Z,50.902382
2023-10-27T07:47:55.227Z,50.902409
2023-10-27T07:48:55.168Z,50.902420
2023-10-27T07:49:55.168Z,50.902405
2023-10-27T07:50:55.164Z,50.902405
2023-10-27T07:51:55.173Z,50.902321
2023-10-27T07:52:55.176Z,50.902397
2023-10-27T07:53:55.215Z,50.902409
2023-10-27T07:54:55.129Z,50.902420
2023-10-27T07:55:55.118Z,50.902424
2023-10-27T07:56:55.165Z,50.902443
2023-10-27T07:57:55.116Z,50.902367
2023-10-27T07:58:55.132Z,50.902382
2023-10-27T07:59:55.088Z,50.902390
2023-10-27T08:00:55.083Z,50.902393
2023-10-27T08:01:55.112Z,50.902393
2023-10-27T08:02:55.141Z,50.902416
2023-10-27T08:03:55.149Z,50.902405
2023-10-27T08:04:55.057Z,50.902397
2023-10-27T08:05:55.078Z,50.902473
2023-10-27T08:06:55.072Z,50.902615
2023-10-27T08:07:55.032Z,50.902699
2023-10-27T08:08:55.036Z,50.902782
2023-10-27T08:09:55.262Z,50.902828
2023-10-27T08:10:55.048Z,50.902931
2023-10-27T08:11:54.999Z,50.902706
2023-10-27T08:12:55.013Z,50.902527
2023-10-27T08:13:54.981Z,50.902496
2023-10-27T08:14:55.006Z,50.902565
2023-10-27T08:15:54.998Z,50.902618
2023-10-27T08:16:54.972Z,50.902462
2023-10-27T08:17:54.992Z,50.902451
2023-10-27T08:18:54.973Z,50.902458
2023-10-27T08:19:55.984Z,50.902485
2023-10-27T08:20:54.930Z,50.902519
2023-10-27T08:21:54.936Z,50.902447
2023-10-27T08:22:54.917Z,50.902340
2023-10-27T08:23:55.000Z,50.902370
2023-10-27T08:24:54.929Z,50.902466
2023-10-27T08:25:54.973Z,50.902569
2023-10-27T08:26:54.880Z,50.902504
2023-10-27T08:27:54.883Z,50.902550
2023-10-27T08:28:54.910Z,50.902473
2023-10-27T08:29:54.892Z,50.902477
2023-10-27T08:30:54.860Z,50.902527
2023-10-27T08:31:54.865Z,50.902496
2023-10-27T08:32:54.901Z,50.902527
2023-10-27T08:33:54.952Z,50.902504
2023-10-27T08:34:54.830Z,50.902493
2023-10-27T08:35:54.809Z,50.902454
2023-10-27T08:36:55.814Z,50.902470
2023-10-27T08:37:54.801Z,50.902462
2023-10-27T08:38:54.817Z,50.902405
2023-10-27T08:39:54.785Z,50.902416
2023-10-27T08:40:54.780Z,50.902363
2023-10-27T08:41:54.836Z,50.902317
2023-10-27T08:42:54.787Z,50.902431
2023-10-27T08:43:54.777Z,50.902454
2023-10-27T08:44:54.747Z,50.902454
2023-10-27T08:45:54.748Z,50.902424
2023-10-27T08:46:54.994Z,50.902431
2023-10-27T08:47:54.805Z,50.902428
2023-10-27T08:48:54.725Z,50.902454
2023-10-27T08:49:54.722Z,50.902431
2023-10-27T08:50:54.725Z,50.902443
2023-10-27T08:51:54.699Z,50.902431
2023-10-27T08:52:54.719Z,50.902435
2023-10-27T08:53:54.677Z,50.902420
2023-10-27T08:54:54.669Z,50.902451
2023-10-27T08:55:54.661Z,50.902447
2023-10-27T08:56:54.682Z,50.902431
2023-10-27T08:57:54.761Z,50.902431
2023-10-27T08:58:54.634Z,50.902416
2023-10-27T08:59:54.627Z,50.902412
2023-10-27T09:00:54.619Z,50.902447
2023-10-27T09:01:54.646Z,50.902431
2023-10-27T09:02:54.630Z,50.902451
2023-10-27T09:03:54.603Z,50.902451
2023-10-27T09:04:56.815Z,50.902466
2023-10-27T09:05:55.582Z,50.902439
2023-10-27T09:06:54.629Z,50.902462
2023-10-27T09:07:54.583Z,50.902431
2023-10-27T09:08:54.568Z,50.902435
2023-10-27T09:09:54.564Z,50.902431
2023-10-27T09:10:54.576Z,50.902454
2023-10-27T09:11:54.564Z,50.902451
2023-10-27T09:12:54.532Z,50.902451
2023-10-27T09:13:54.743Z,50.902443
2023-10-27T09:14:54.526Z,50.902470
2023-10-27T09:15:54.532Z,50.902454
2023-10-27T09:16:54.499Z,50.902451
2023-10-27T09:17:54.607Z,50.902431
2023-10-27T09:18:54.580Z,50.902458
2023-10-27T09:19:54.498Z,50.902428
2023-10-27T09:20:54.498Z,50.902435
2023-10-27T09:21:54.464Z,50.902424
2023-10-27T09:22:54.499Z,50.902439
2023-10-27T09:23:54.451Z,50.902428
2023-10-27T09:24:54.471Z,50.902428
2023-10-27T09:25:54.454Z,50.902443
2023-10-27T09:26:54.429Z,50.902462
2023-10-27T09:27:54.417Z,50.902451
2023-10-27T09:28:54.412Z,50.902439
2023-10-27T09:29:54.499Z,50.902439
2023-10-27T09:30:54.393Z,50.902420
2023-10-27T09:31:54.399Z,50.902504
2023-10-27T09:32:54.450Z,50.902458
2023-10-27T09:33:54.437Z,50.902439
2023-10-27T09:34:54.455Z,50.902443
2023-10-27T09:35:54.359Z,50.902439
2023-10-27T09:36:54.342Z,50.902435
2023-10-27T09:37:54.336Z,50.902451
2023-10-27T09:38:54.330Z,50.902519
2023-10-27T09:39:54.340Z,50.902496
2023-10-27T09:40:54.303Z,50.902401
2023-10-27T09:41:55.302Z,50.902435
2023-10-27T09:42:54.302Z,50.902424
2023-10-27T09:43:54.328Z,50.902405
2023-10-27T09:44:54.315Z,50.902378
2023-10-27T09:45:54.355Z,50.902416
2023-10-27T09:46:54.272Z,50.902462
2023-10-27T09:47:54.304Z,50.902466
2023-10-27T09:49:05.330Z,50.902451
2023-10-27T09:49:56.266Z,50.902420
2023-10-27T09:50:54.231Z,50.902397
2023-10-27T09:51:54.222Z,50.902424
2023-10-27T09:52:54.223Z,50.902435
2023-10-27T09:53:54.238Z,50.902439
2023-10-27T09:55:02.616Z,50.902424
2023-10-27T09:55:56.218Z,50.902412
2023-10-27T09:56:54.189Z,50.902424
2023-10-27T09:57:54.219Z,50.902428
2023-10-27T09:58:54.209Z,50.902412
2023-10-27T09:59:54.169Z,50.902397
2023-10-27T10:00:54.184Z,50.902431
2023-10-27T10:01:55.511Z,50.902424
2023-10-27T10:02:54.208Z,50.902431
2023-10-27T10:03:54.207Z,50.902393
2023-10-27T10:04:54.218Z,50.902424
2023-10-27T10:05:54.121Z,50.902462
2023-10-27T10:06:55.275Z,50.902451
2023-10-27T10:07:54.255Z,50.902451
2023-10-27T10:08:54.103Z,50.902431
2023-10-27T10:09:54.093Z,50.902458
2023-10-27T10:10:54.085Z,50.902435
2023-10-27T10:11:54.117Z,50.902466
2023-10-27T10:12:54.107Z,50.902435
2023-10-27T10:13:54.063Z,50.902424
2023-10-27T10:14:54.052Z,50.902462
2023-10-27T10:15:54.050Z,50.902428
2023-10-27T10:16:54.064Z,50.902431
2023-10-27T10:17:54.122Z,50.902435
2023-10-27T10:18:54.096Z,50.902439
2023-10-27T10:19:54.096Z,50.902443
2023-10-27T10:20:54.076Z,50.902435
2023-10-27T10:21:54.035Z,50.902454
2023-10-27T10:22:55.207Z,50.902439
2023-10-27T10:23:54.022Z,50.902435
2023-10-27T10:24:54.016Z,50.902435
2023-10-27T10:25:53.965Z,50.902443
2023-10-27T10:26:53.978Z,50.902424
2023-10-27T10:27:53.948Z,50.902428
2023-10-27T10:28:53.978Z,50.902439
2023-10-27T10:29:53.935Z,50.902447
2023-10-27T10:30:53.959Z,50.902435
2023-10-27T10:31:53.954Z,50.902439
2023-10-27T10:32:53.934Z,50.902435
2023-10-27T10:33:54.021Z,50.902451
2023-10-27T10:34:53.957Z,50.902458
2023-10-27T10:35:53.920Z,50.902458
2023-10-27T10:36:53.893Z,50.902462
2023-10-27T10:37:53.879Z,50.902447
2023-10-27T10:38:53.868Z,50.902451
2023-10-27T10:39:53.865Z,50.902447
2023-10-27T10:40:53.941Z,50.902439
2023-10-27T10:41:53.845Z,50.902447
2023-10-27T10:42:53.847Z,50.902435
2023-10-27T10:43:53.871Z,50.902435
2023-10-27T10:44:53.851Z,50.902451
2023-10-27T10:45:53.840Z,50.902451
2023-10-27T10:46:53.819Z,50.902439
2023-10-27T10:47:53.867Z,50.902454
2023-10-27T10:48:53.901Z,50.902462
2023-10-27T10:49:53.878Z,50.902466
2023-10-27T10:50:53.776Z,50.902451
2023-10-27T10:51:53.805Z,50.902466
2023-10-27T10:52:53.749Z,50.902462
2023-10-27T10:53:53.760Z,50.902485
2023-10-27T10:54:53.767Z,50.902489
2023-10-27T10:55:53.737Z,50.902477
2023-10-27T10:56:53.731Z,50.902462
2023-10-27T10:57:53.715Z,50.902458
2023-10-27T10:58:53.748Z,50.902473
2023-10-27T10:59:53.730Z,50.902489
2023-10-27T11:00:53.701Z,50.902481
2023-10-27T11:01:53.691Z,50.902473
2023-10-27T11:02:53.681Z,50.902481
2023-10-27T11:03:53.731Z,50.902470
2023-10-27T11:04:54.038Z,50.902477
2023-10-27T11:05:53.944Z,50.902515
2023-10-27T11:06:53.652Z,50.902470
2023-10-27T11:07:53.650Z,50.902504
2023-10-27T11:08:53.664Z,50.902477
2023-10-27T11:09:53.629Z,50.902531
2023-10-27T11:10:53.634Z,50.902477
2023-10-27T11:11:53.612Z,50.902458
2023-10-27T11:12:53.674Z,50.902481
2023-10-27T11:13:53.614Z,50.902473
2023-10-27T11:14:53.595Z,50.902428
2023-10-27T11:15:53.577Z,50.902470
2023-10-27T11:16:53.569Z,50.902431
2023-10-27T11:17:53.638Z,50.902393
2023-10-27T11:18:53.611Z,50.902473
2023-10-27T11:19:53.590Z,50.902515
2023-10-27T11:20:53.534Z,50.902466
2023-10-27T11:21:53.616Z,50.902397
2023-10-27T11:22:53.605Z,50.902405
2023-10-27T11:23:53.515Z,50.902439
2023-10-27T11:24:53.505Z,50.902477